sensor_id;sensor_type;location;lat;lon;timestamp;pressure;altitude;pressure_sealevel;temperature;humidity
15646;BME280;7922;43.622;1.476;2023-04-07T00:00:47;100318.25;;;7.43;69.25
15646;BME280;7922;43.622;1.476;2023-04-07T00:03:12;100354.56;;;7.68;69.65
15646;BME280;7922;43.622;1.476;2023-04-07T00:05:37;100297.22;;;7.40;70.00
15646;BME280;7922;43.622;1.476;2023-04-07T00:08:03;100362.41;;;7.69;69.93
15646;BME280;7922;43.622;1.476;2023-04-07T00:10:28;100340.03;;;7.52;70.03
15646;BME280;7922;43.622;1.476;2023-04-07T00:12:53;100309.13;;;7.21;70.15
15646;BME280;7922;43.622;1.476;2023-04-07T00:15:18;100387.34;;;7.56;70.94
15646;BME280;7922;43.622;1.476;2023-04-07T00:17:44;100382.09;;;7.56;71.24
15646;BME280;7922;43.622;1.476;2023-04-07T00:20:09;100336.25;;;7.24;71.57
15646;BME280;7922;43.622;1.476;2023-04-07T00:22:35;100121.47;;;5.99;71.40
15646;BME280;7922;43.622;1.476;2023-04-07T00:25:00;100395.34;;;7.53;71.46
15646;BME280;7922;43.622;1.476;2023-04-07T00:27:25;100222.19;;;6.45;70.96
15646;BME280;7922;43.622;1.476;2023-04-07T00:29:51;100134.59;;;6.01;70.15
15646;BME280;7922;43.622;1.476;2023-04-07T00:32:16;100295.63;;;6.97;71.18
15646;BME280;7922;43.622;1.476;2023-04-07T00:34:41;100270.66;;;6.75;71.77
15646;BME280;7922;43.622;1.476;2023-04-07T00:37:06;100155.63;;;6.01;71.90
15646;BME280;7922;43.622;1.476;2023-04-07T00:39:32;100296.97;;;6.77;71.95
15646;BME280;7922;43.622;1.476;2023-04-07T00:41:57;100341.16;;;7.03;71.62
15646;BME280;7922;43.622;1.476;2023-04-07T00:44:22;100173.00;;;6.08;72.14
15646;BME280;7922;43.622;1.476;2023-04-07T00:46:48;100301.31;;;6.79;72.59
15646;BME280;7922;43.622;1.476;2023-04-07T00:49:14;100128.72;;;5.87;72.47
15646;BME280;7922;43.622;1.476;2023-04-07T00:51:40;100290.78;;;6.78;72.83
15646;BME280;7922;43.622;1.476;2023-04-07T00:54:05;100324.66;;;6.94;72.83
15646;BME280;7922;43.622;1.476;2023-04-07T00:56:31;100351.63;;;7.04;73.53
15646;BME280;7922;43.622;1.476;2023-04-07T00:58:56;100205.41;;;6.09;73.66
15646;BME280;7922;43.622;1.476;2023-04-07T01:01:24;100285.13;;;6.56;73.98
15646;BME280;7922;43.622;1.476;2023-04-07T01:04:12;100351.22;;;6.82;74.07
15646;BME280;7922;43.622;1.476;2023-04-07T01:06:47;100261.41;;;6.15;74.33
15646;BME280;7922;43.622;1.476;2023-04-07T01:09:18;100087.13;;;5.20;73.99
15646;BME280;7922;43.622;1.476;2023-04-07T01:11:56;100288.13;;;6.37;73.76
15646;BME280;7922;43.622;1.476;2023-04-07T01:14:24;100254.47;;;6.10;74.42
15646;BME280;7922;43.622;1.476;2023-04-07T01:16:55;100082.84;;;5.16;74.04
15646;BME280;7922;43.622;1.476;2023-04-07T01:19:35;100336.56;;;6.72;73.51
15646;BME280;7922;43.622;1.476;2023-04-07T01:22:07;100287.38;;;6.32;74.08
15646;BME280;7922;43.622;1.476;2023-04-07T01:24:50;100120.81;;;5.43;73.86
15646;BME280;7922;43.622;1.476;2023-04-07T01:30:02;100268.53;;;6.10;74.19
15646;BME280;7922;43.622;1.476;2023-04-07T01:32:29;100277.06;;;6.21;74.25
15646;BME280;7922;43.622;1.476;2023-04-07T01:34:56;100328.16;;;6.53;74.13
15646;BME280;7922;43.622;1.476;2023-04-07T01:37:23;100255.44;;;6.06;75.32
15646;BME280;7922;43.622;1.476;2023-04-07T01:39:49;100279.69;;;6.21;74.17
15646;BME280;7922;43.622;1.476;2023-04-07T01:42:14;100336.13;;;6.50;74.69
15646;BME280;7922;43.622;1.476;2023-04-07T01:44:41;100294.63;;;6.21;74.51
15646;BME280;7922;43.622;1.476;2023-04-07T01:47:07;100126.47;;;5.22;75.00
15646;BME280;7922;43.622;1.476;2023-04-07T01:49:34;100223.66;;;5.70;75.43
15646;BME280;7922;43.622;1.476;2023-04-07T01:52:01;100214.00;;;5.72;74.78
15646;BME280;7922;43.622;1.476;2023-04-07T01:54:27;100313.63;;;6.34;74.59
15646;BME280;7922;43.622;1.476;2023-04-07T01:56:53;100146.53;;;5.26;74.33
15646;BME280;7922;43.622;1.476;2023-04-07T01:59:18;100227.91;;;5.78;75.10
15646;BME280;7922;43.622;1.476;2023-04-07T02:01:43;100217.50;;;5.72;74.92
15646;BME280;7922;43.622;1.476;2023-04-07T02:06:54;100220.97;;;5.73;75.16
15646;BME280;7922;43.622;1.476;2023-04-07T02:09:21;100261.84;;;5.92;75.09
15646;BME280;7922;43.622;1.476;2023-04-07T02:11:48;100305.09;;;6.22;74.77
15646;BME280;7922;43.622;1.476;2023-04-07T02:14:16;100072.13;;;4.79;75.50
15646;BME280;7922;43.622;1.476;2023-04-07T02:16:42;100238.69;;;5.63;75.80
15646;BME280;7922;43.622;1.476;2023-04-07T02:19:08;100286.25;;;5.99;75.88
15646;BME280;7922;43.622;1.476;2023-04-07T02:21:34;100060.13;;;4.64;75.79
15646;BME280;7922;43.622;1.476;2023-04-07T02:24:06;100113.91;;;4.91;75.68
15646;BME280;7922;43.622;1.476;2023-04-07T02:26:35;100238.66;;;5.65;75.86
15646;BME280;7922;43.622;1.476;2023-04-07T02:29:03;100298.47;;;6.03;76.05
15646;BME280;7922;43.622;1.476;2023-04-07T02:31:29;100094.88;;;4.78;76.70
15646;BME280;7922;43.622;1.476;2023-04-07T02:33:54;100032.69;;;4.31;76.63
15646;BME280;7922;43.622;1.476;2023-04-07T02:36:19;100307.47;;;5.88;77.17
15646;BME280;7922;43.622;1.476;2023-04-07T02:38:45;100255.44;;;5.58;77.27
15646;BME280;7922;43.622;1.476;2023-04-07T02:41:10;100226.00;;;5.37;77.12
15646;BME280;7922;43.622;1.476;2023-04-07T02:43:35;100247.75;;;5.47;77.18
15646;BME280;7922;43.622;1.476;2023-04-07T02:46:00;100205.31;;;5.19;76.89
15646;BME280;7922;43.622;1.476;2023-04-07T02:48:26;100083.09;;;4.50;77.38
15646;BME280;7922;43.622;1.476;2023-04-07T02:50:51;100178.41;;;5.04;76.99
15646;BME280;7922;43.622;1.476;2023-04-07T02:53:16;100252.28;;;5.37;77.29
15646;BME280;7922;43.622;1.476;2023-04-07T02:55:42;100271.38;;;5.48;77.56
15646;BME280;7922;43.622;1.476;2023-04-07T02:58:07;100136.31;;;4.58;77.37
15646;BME280;7922;43.622;1.476;2023-04-07T03:00:33;100268.75;;;5.47;77.40
15646;BME280;7922;43.622;1.476;2023-04-07T03:02:58;100315.00;;;5.57;77.74
15646;BME280;7922;43.622;1.476;2023-04-07T03:05:24;100307.94;;;5.59;77.57
15646;BME280;7922;43.622;1.476;2023-04-07T03:07:49;100232.56;;;5.12;77.59
15646;BME280;7922;43.622;1.476;2023-04-07T03:10:14;100228.19;;;5.12;77.41
15646;BME280;7922;43.622;1.476;2023-04-07T03:12:40;100199.50;;;5.00;77.48
15646;BME280;7922;43.622;1.476;2023-04-07T03:15:05;100215.06;;;5.11;77.97
15646;BME280;7922;43.622;1.476;2023-04-07T03:17:31;100231.56;;;5.20;77.65
15646;BME280;7922;43.622;1.476;2023-04-07T03:19:56;100283.63;;;5.48;78.05
15646;BME280;7922;43.622;1.476;2023-04-07T03:22:21;100082.56;;;4.29;77.87
15646;BME280;7922;43.622;1.476;2023-04-07T03:24:47;100251.44;;;5.35;78.16
15646;BME280;7922;43.622;1.476;2023-04-07T03:27:12;100203.81;;;5.05;77.38
15646;BME280;7922;43.622;1.476;2023-04-07T03:29:37;100169.16;;;4.83;77.64
15646;BME280;7922;43.622;1.476;2023-04-07T03:32:02;100050.53;;;4.09;77.51
15646;BME280;7922;43.622;1.476;2023-04-07T03:34:28;100230.09;;;5.01;78.19
15646;BME280;7922;43.622;1.476;2023-04-07T03:36:53;100172.81;;;4.72;78.60
15646;BME280;7922;43.622;1.476;2023-04-07T03:39:18;100234.44;;;5.05;78.56
15646;BME280;7922;43.622;1.476;2023-04-07T03:41:43;100141.69;;;4.50;78.71
15646;BME280;7922;43.622;1.476;2023-04-07T03:44:09;100170.34;;;4.63;78.62
15646;BME280;7922;43.622;1.476;2023-04-07T03:46:34;100201.44;;;4.89;78.43
15646;BME280;7922;43.622;1.476;2023-04-07T03:48:59;100216.22;;;4.94;78.40
15646;BME280;7922;43.622;1.476;2023-04-07T03:51:25;100061.28;;;3.92;78.94
15646;BME280;7922;43.622;1.476;2023-04-07T03:53:50;100190.28;;;4.76;78.65
15646;BME280;7922;43.622;1.476;2023-04-07T03:56:15;100145.13;;;4.54;78.88
15646;BME280;7922;43.622;1.476;2023-04-07T03:58:41;100172.94;;;4.64;78.43
15646;BME280;7922;43.622;1.476;2023-04-07T04:01:06;100203.31;;;4.80;78.43
15646;BME280;7922;43.622;1.476;2023-04-07T04:03:31;100201.75;;;4.67;79.22
15646;BME280;7922;43.622;1.476;2023-04-07T04:05:56;100235.59;;;4.86;79.42
15646;BME280;7922;43.622;1.476;2023-04-07T04:08:22;100003.16;;;3.62;78.43
15646;BME280;7922;43.622;1.476;2023-04-07T04:10:47;100037.84;;;3.80;79.07
15646;BME280;7922;43.622;1.476;2023-04-07T04:13:13;100254.53;;;5.06;79.62
15646;BME280;7922;43.622;1.476;2023-04-07T04:15:38;100223.41;;;4.81;78.55
15646;BME280;7922;43.622;1.476;2023-04-07T04:18:03;100191.31;;;4.66;79.48
15646;BME280;7922;43.622;1.476;2023-04-07T04:20:29;100071.69;;;3.95;79.26
15646;BME280;7922;43.622;1.476;2023-04-07T04:22:54;100180.94;;;4.56;79.13
15646;BME280;7922;43.622;1.476;2023-04-07T04:25:19;100214.81;;;4.72;79.26
15646;BME280;7922;43.622;1.476;2023-04-07T04:27:44;100232.19;;;4.79;79.08
15646;BME280;7922;43.622;1.476;2023-04-07T04:30:10;100241.66;;;4.89;79.43
15646;BME280;7922;43.622;1.476;2023-04-07T04:32:35;100050.94;;;3.80;79.52
15646;BME280;7922;43.622;1.476;2023-04-07T04:35:00;100011.16;;;3.52;78.92
15646;BME280;7922;43.622;1.476;2023-04-07T04:37:26;100198.31;;;4.64;79.70
15646;BME280;7922;43.622;1.476;2023-04-07T04:39:52;100148.13;;;4.28;79.26
15646;BME280;7922;43.622;1.476;2023-04-07T04:42:17;100129.91;;;4.17;79.52
15646;BME280;7922;43.622;1.476;2023-04-07T04:44:42;100174.19;;;4.40;79.35
15646;BME280;7922;43.622;1.476;2023-04-07T04:47:08;100035.50;;;3.58;79.65
15646;BME280;7922;43.622;1.476;2023-04-07T04:49:33;100160.44;;;4.23;80.17
15646;BME280;7922;43.622;1.476;2023-04-07T04:51:58;100134.41;;;4.10;80.05
15646;BME280;7922;43.622;1.476;2023-04-07T04:54:24;100023.44;;;3.47;79.43
15646;BME280;7922;43.622;1.476;2023-04-07T04:56:49;100190.03;;;4.32;79.60
15646;BME280;7922;43.622;1.476;2023-04-07T04:59:14;100178.75;;;4.26;79.79
15646;BME280;7922;43.622;1.476;2023-04-07T05:01:39;100177.09;;;4.19;79.88
15646;BME280;7922;43.622;1.476;2023-04-07T05:04:05;100203.16;;;4.32;80.16
15646;BME280;7922;43.622;1.476;2023-04-07T05:06:30;100046.19;;;3.43;80.63
15646;BME280;7922;43.622;1.476;2023-04-07T05:08:55;100221.28;;;4.48;80.07
15646;BME280;7922;43.622;1.476;2023-04-07T05:11:21;100215.22;;;4.43;80.15
15646;BME280;7922;43.622;1.476;2023-04-07T05:13:46;100163.16;;;4.15;80.12
15646;BME280;7922;43.622;1.476;2023-04-07T05:16:11;100124.28;;;3.83;80.27
15646;BME280;7922;43.622;1.476;2023-04-07T05:18:37;100067.03;;;3.51;79.75
15646;BME280;7922;43.622;1.476;2023-04-07T05:21:02;100093.91;;;3.68;80.50
15646;BME280;7922;43.622;1.476;2023-04-07T05:23:27;100206.72;;;4.25;80.30
15646;BME280;7922;43.622;1.476;2023-04-07T05:25:53;100203.22;;;4.26;80.04
15646;BME280;7922;43.622;1.476;2023-04-07T05:28:18;100122.56;;;3.79;79.85
15646;BME280;7922;43.622;1.476;2023-04-07T05:30:43;100278.66;;;4.72;79.72
15646;BME280;7922;43.622;1.476;2023-04-07T05:33:09;100283.06;;;4.70;79.25
15646;BME280;7922;43.622;1.476;2023-04-07T05:35:34;100228.44;;;4.37;80.34
15646;BME280;7922;43.622;1.476;2023-04-07T05:37:59;100151.19;;;3.94;80.14
15646;BME280;7922;43.622;1.476;2023-04-07T05:40:24;100235.22;;;4.51;80.11
15646;BME280;7922;43.622;1.476;2023-04-07T05:42:50;100090.41;;;3.68;79.86
15646;BME280;7922;43.622;1.476;2023-04-07T05:45:15;100227.28;;;4.56;79.57
15646;BME280;7922;43.622;1.476;2023-04-07T05:47:40;100209.91;;;4.50;79.45
15646;BME280;7922;43.622;1.476;2023-04-07T05:50:06;100250.53;;;4.82;78.74
15646;BME280;7922;43.622;1.476;2023-04-07T05:52:32;100240.06;;;4.79;78.34
15646;BME280;7922;43.622;1.476;2023-04-07T05:54:57;100186.97;;;4.63;78.42
15646;BME280;7922;43.622;1.476;2023-04-07T05:57:22;100045.72;;;3.80;78.17
15646;BME280;7922;43.622;1.476;2023-04-07T05:59:47;100107.97;;;4.24;77.98
15646;BME280;7922;43.622;1.476;2023-04-07T06:02:13;100238.78;;;5.06;77.36
15646;BME280;7922;43.622;1.476;2023-04-07T06:04:38;100093.06;;;4.28;77.28
15646;BME280;7922;43.622;1.476;2023-04-07T06:07:04;100139.72;;;4.63;77.42
15646;BME280;7922;43.622;1.476;2023-04-07T06:09:29;100258.38;;;5.39;76.89
15646;BME280;7922;43.622;1.476;2023-04-07T06:11:54;99842.53;;;3.05;76.75
15646;BME280;7922;43.622;1.476;2023-04-07T06:14:20;100230.44;;;5.35;76.52
15646;BME280;7922;43.622;1.476;2023-04-07T06:16:45;100221.47;;;5.48;76.40
15646;BME280;7922;43.622;1.476;2023-04-07T06:19:10;100170.03;;;5.34;75.64
15646;BME280;7922;43.622;1.476;2023-04-07T06:21:36;100292.03;;;6.18;74.26
15646;BME280;7922;43.622;1.476;2023-04-07T06:24:01;100211.22;;;5.81;73.80
15646;BME280;7922;43.622;1.476;2023-04-07T06:26:26;100226.72;;;5.96;74.36
15646;BME280;7922;43.622;1.476;2023-04-07T06:28:52;100308.06;;;6.49;73.97
15646;BME280;7922;43.622;1.476;2023-04-07T06:31:17;100270.63;;;6.36;73.30
15646;BME280;7922;43.622;1.476;2023-04-07T06:33:43;100312.78;;;6.75;73.43
15646;BME280;7922;43.622;1.476;2023-04-07T06:36:09;100107.22;;;5.66;73.02
15646;BME280;7922;43.622;1.476;2023-04-07T06:38:34;100336.75;;;7.03;72.06
15646;BME280;7922;43.622;1.476;2023-04-07T06:41:00;100241.84;;;6.69;71.67
15646;BME280;7922;43.622;1.476;2023-04-07T06:43:25;100204.50;;;6.51;71.53
15646;BME280;7922;43.622;1.476;2023-04-07T06:45:50;100119.41;;;6.14;70.96
15646;BME280;7922;43.622;1.476;2023-04-07T06:48:16;100244.69;;;6.97;71.11
15646;BME280;7922;43.622;1.476;2023-04-07T06:50:45;100139.66;;;6.49;70.58
15646;BME280;7922;43.622;1.476;2023-04-07T06:53:10;100157.53;;;6.72;70.12
15646;BME280;7922;43.622;1.476;2023-04-07T06:55:35;100253.13;;;7.47;69.45
15646;BME280;7922;43.622;1.476;2023-04-07T06:58:01;100286.59;;;7.79;69.34
15646;BME280;7922;43.622;1.476;2023-04-07T07:00:26;100193.66;;;7.37;69.12
15646;BME280;7922;43.622;1.476;2023-04-07T07:02:51;100255.78;;;7.81;68.61
15646;BME280;7922;43.622;1.476;2023-04-07T07:05:16;100136.59;;;7.36;68.27
15646;BME280;7922;43.622;1.476;2023-04-07T07:07:42;100218.38;;;7.98;67.45
15646;BME280;7922;43.622;1.476;2023-04-07T07:10:08;100277.75;;;8.46;67.36
15646;BME280;7922;43.622;1.476;2023-04-07T07:12:33;100315.38;;;8.83;66.71
15646;BME280;7922;43.622;1.476;2023-04-07T07:14:59;100298.13;;;8.72;65.82
15646;BME280;7922;43.622;1.476;2023-04-07T07:17:24;100261.81;;;8.78;65.14
15646;BME280;7922;43.622;1.476;2023-04-07T07:19:49;100111.28;;;7.92;63.82
15646;BME280;7922;43.622;1.476;2023-04-07T07:22:14;100154.91;;;8.04;63.71
15646;BME280;7922;43.622;1.476;2023-04-07T07:24:40;100297.41;;;8.95;64.32
15646;BME280;7922;43.622;1.476;2023-04-07T07:27:05;100269.63;;;8.81;63.45
15646;BME280;7922;43.622;1.476;2023-04-07T07:29:30;100130.84;;;8.15;63.44
15646;BME280;7922;43.622;1.476;2023-04-07T07:31:56;100263.78;;;9.00;63.51
15646;BME280;7922;43.622;1.476;2023-04-07T07:34:21;100314.47;;;9.40;62.58
15646;BME280;7922;43.622;1.476;2023-04-07T07:36:46;100251.97;;;9.11;62.42
15646;BME280;7922;43.622;1.476;2023-04-07T07:39:12;100287.28;;;9.63;62.01
15646;BME280;7922;43.622;1.476;2023-04-07T07:41:37;100209.72;;;9.36;61.25
15646;BME280;7922;43.622;1.476;2023-04-07T07:44:02;100263.50;;;9.62;60.08
15646;BME280;7922;43.622;1.476;2023-04-07T07:46:27;100146.00;;;8.92;60.11
15646;BME280;7922;43.622;1.476;2023-04-07T07:48:53;100297.19;;;9.57;60.23
15646;BME280;7922;43.622;1.476;2023-04-07T07:51:18;100302.19;;;9.66;60.50
15646;BME280;7922;43.622;1.476;2023-04-07T07:53:44;100172.31;;;8.96;60.26
15646;BME280;7922;43.622;1.476;2023-04-07T07:56:09;100265.69;;;9.76;59.79
15646;BME280;7922;43.622;1.476;2023-04-07T07:58:34;100273.47;;;10.05;60.19
15646;BME280;7922;43.622;1.476;2023-04-07T08:01:00;100328.88;;;10.36;59.60
15646;BME280;7922;43.622;1.476;2023-04-07T08:03:25;100298.38;;;10.25;58.97
15646;BME280;7922;43.622;1.476;2023-04-07T08:05:51;100308.66;;;9.82;60.65
15646;BME280;7922;43.622;1.476;2023-04-07T08:08:16;100156.84;;;9.36;59.47
15646;BME280;7922;43.622;1.476;2023-04-07T08:10:41;100302.91;;;10.21;59.48
15646;BME280;7922;43.622;1.476;2023-04-07T08:13:06;100330.75;;;10.33;59.39
15646;BME280;7922;43.622;1.476;2023-04-07T08:15:32;100290.63;;;10.19;59.54
15646;BME280;7922;43.622;1.476;2023-04-07T08:17:57;100343.41;;;10.50;59.28
15646;BME280;7922;43.622;1.476;2023-04-07T08:20:22;100242.88;;;9.73;59.46
15646;BME280;7922;43.622;1.476;2023-04-07T08:22:48;100304.56;;;10.49;58.83
15646;BME280;7922;43.622;1.476;2023-04-07T08:25:13;100136.56;;;9.62;58.85
15646;BME280;7922;43.622;1.476;2023-04-07T08:27:38;100292.03;;;10.54;58.60
15646;BME280;7922;43.622;1.476;2023-04-07T08:30:04;100330.16;;;10.73;58.72
15646;BME280;7922;43.622;1.476;2023-04-07T08:32:38;100264.72;;;10.52;58.85
15646;BME280;7922;43.622;1.476;2023-04-07T08:35:04;100342.75;;;11.14;58.21
15646;BME280;7922;43.622;1.476;2023-04-07T08:37:30;100304.25;;;11.03;58.27
15646;BME280;7922;43.622;1.476;2023-04-07T08:39:56;100325.44;;;11.27;57.89
15646;BME280;7922;43.622;1.476;2023-04-07T08:42:23;100266.13;;;11.29;57.68
15646;BME280;7922;43.622;1.476;2023-04-07T08:44:51;100340.59;;;11.89;57.56
15646;BME280;7922;43.622;1.476;2023-04-07T08:47:18;100098.50;;;10.36;57.20
15646;BME280;7922;43.622;1.476;2023-04-07T08:49:46;100264.63;;;11.22;56.91
15646;BME280;7922;43.622;1.476;2023-04-07T08:52:17;100313.88;;;11.72;56.92
15646;BME280;7922;43.622;1.476;2023-04-07T08:54:44;100281.81;;;11.56;56.90
15646;BME280;7922;43.622;1.476;2023-04-07T08:57:10;100322.09;;;12.08;56.87
15646;BME280;7922;43.622;1.476;2023-04-07T08:59:37;100280.41;;;12.10;56.12
15646;BME280;7922;43.622;1.476;2023-04-07T09:02:03;100341.19;;;12.57;56.39
15646;BME280;7922;43.622;1.476;2023-04-07T09:04:29;100329.50;;;12.61;55.73
15646;BME280;7922;43.622;1.476;2023-04-07T09:06:54;100281.06;;;12.15;54.62
15646;BME280;7922;43.622;1.476;2023-04-07T09:09:20;100336.31;;;12.67;54.64
15646;BME280;7922;43.622;1.476;2023-04-07T09:11:47;100238.06;;;11.87;55.08
15646;BME280;7922;43.622;1.476;2023-04-07T09:14:12;100249.44;;;12.29;54.61
15646;BME280;7922;43.622;1.476;2023-04-07T09:16:41;100252.81;;;12.33;54.10
15646;BME280;7922;43.622;1.476;2023-04-07T09:19:07;100133.97;;;11.60;53.72
15646;BME280;7922;43.622;1.476;2023-04-07T09:21:51;100311.97;;;12.57;53.75
15646;BME280;7922;43.622;1.476;2023-04-07T09:24:24;100314.75;;;12.54;53.44
15646;BME280;7922;43.622;1.476;2023-04-07T09:26:51;100181.91;;;11.96;53.50
15646;BME280;7922;43.622;1.476;2023-04-07T09:29:32;100242.06;;;12.55;54.05
15646;BME280;7922;43.622;1.476;2023-04-07T09:31:57;100311.41;;;12.88;53.55
15646;BME280;7922;43.622;1.476;2023-04-07T09:34:25;100305.88;;;12.93;53.81
15646;BME280;7922;43.622;1.476;2023-04-07T09:36:50;100310.25;;;13.32;53.51
15646;BME280;7922;43.622;1.476;2023-04-07T09:39:16;100255.56;;;13.26;53.25
15646;BME280;7922;43.622;1.476;2023-04-07T09:41:41;100257.34;;;13.07;53.55
15646;BME280;7922;43.622;1.476;2023-04-07T09:44:06;100223.22;;;12.97;52.63
15646;BME280;7922;43.622;1.476;2023-04-07T09:46:32;100223.41;;;13.12;53.25
15646;BME280;7922;43.622;1.476;2023-04-07T09:49:03;100278.53;;;13.63;52.51
15646;BME280;7922;43.622;1.476;2023-04-07T09:51:28;100152.41;;;12.77;52.06
15646;BME280;7922;43.622;1.476;2023-04-07T09:53:54;100236.00;;;13.27;53.13
15646;BME280;7922;43.622;1.476;2023-04-07T09:56:20;100306.25;;;13.94;52.18
15646;BME280;7922;43.622;1.476;2023-04-07T09:58:46;100267.41;;;14.07;51.83
15646;BME280;7922;43.622;1.476;2023-04-07T10:01:13;100241.28;;;13.81;51.48
15646;BME280;7922;43.622;1.476;2023-04-07T10:03:39;100190.94;;;13.59;51.71
15646;BME280;7922;43.622;1.476;2023-04-07T10:06:05;100260.22;;;13.92;50.82
15646;BME280;7922;43.622;1.476;2023-04-07T10:08:32;100290.28;;;14.44;51.75
15646;BME280;7922;43.622;1.476;2023-04-07T10:10:59;100164.09;;;13.96;51.33
15646;BME280;7922;43.622;1.476;2023-04-07T10:13:25;100282.00;;;15.00;51.89
15646;BME280;7922;43.622;1.476;2023-04-07T10:15:51;100264.41;;;14.80;50.33
15646;BME280;7922;43.622;1.476;2023-04-07T10:18:19;100246.09;;;14.89;50.93
15646;BME280;7922;43.622;1.476;2023-04-07T10:20:46;100169.38;;;14.30;49.56
15646;BME280;7922;43.622;1.476;2023-04-07T10:23:21;100054.44;;;13.72;48.70
15646;BME280;7922;43.622;1.476;2023-04-07T10:25:51;100269.50;;;15.16;47.66
15646;BME280;7922;43.622;1.476;2023-04-07T10:28:19;100170.03;;;14.66;47.76
15646;BME280;7922;43.622;1.476;2023-04-07T10:30:47;100063.94;;;14.10;47.44
15646;BME280;7922;43.622;1.476;2023-04-07T10:33:14;100236.41;;;15.34;47.28
15646;BME280;7922;43.622;1.476;2023-04-07T10:36:04;100262.38;;;15.47;46.60
15646;BME280;7922;43.622;1.476;2023-04-07T10:38:30;100119.38;;;14.66;45.92
15646;BME280;7922;43.622;1.476;2023-04-07T10:40:55;100214.44;;;15.45;45.94
15646;BME280;7922;43.622;1.476;2023-04-07T10:43:40;100218.06;;;15.44;45.34
15646;BME280;7922;43.622;1.476;2023-04-07T10:46:05;100240.59;;;15.84;45.29
15646;BME280;7922;43.622;1.476;2023-04-07T10:48:31;100196.34;;;15.64;44.60
15646;BME280;7922;43.622;1.476;2023-04-07T10:53:30;99787.44;;;13.40;45.53
15646;BME280;7922;43.622;1.476;2023-04-07T10:55:56;100204.09;;;15.99;44.52
15646;BME280;7922;43.622;1.476;2023-04-07T10:58:34;100197.28;;;15.49;43.02
15646;BME280;7922;43.622;1.476;2023-04-07T11:03:34;100213.94;;;16.13;43.21
15646;BME280;7922;43.622;1.476;2023-04-07T11:06:08;100196.16;;;16.12;41.30
15646;BME280;7922;43.622;1.476;2023-04-07T11:11:09;100196.75;;;16.17;41.30
15646;BME280;7922;43.622;1.476;2023-04-07T11:13:45;100018.97;;;15.40;41.85
15646;BME280;7922;43.622;1.476;2023-04-07T11:16:12;100219.47;;;16.39;42.02
15646;BME280;7922;43.622;1.476;2023-04-07T11:18:38;100219.84;;;16.32;42.54
15646;BME280;7922;43.622;1.476;2023-04-07T11:21:05;100168.19;;;16.32;42.96
15646;BME280;7922;43.622;1.476;2023-04-07T11:23:41;100212.97;;;16.43;41.65
15646;BME280;7922;43.622;1.476;2023-04-07T11:26:08;100138.09;;;16.43;42.14
15646;BME280;7922;43.622;1.476;2023-04-07T11:28:35;100184.75;;;16.80;39.96
15646;BME280;7922;43.622;1.476;2023-04-07T11:31:08;100207.66;;;16.84;40.30
15646;BME280;7922;43.622;1.476;2023-04-07T11:33:34;100187.78;;;16.88;41.18
15646;BME280;7922;43.622;1.476;2023-04-07T11:36:00;100156.75;;;16.86;39.90
15646;BME280;7922;43.622;1.476;2023-04-07T11:38:37;100160.69;;;17.07;40.52
15646;BME280;7922;43.622;1.476;2023-04-07T11:41:10;100125.00;;;17.06;40.44
15646;BME280;7922;43.622;1.476;2023-04-07T11:43:36;100086.22;;;16.72;39.41
15646;BME280;7922;43.622;1.476;2023-04-07T11:46:12;100122.81;;;16.86;39.74
15646;BME280;7922;43.622;1.476;2023-04-07T11:48:40;100115.31;;;16.78;40.50
15646;BME280;7922;43.622;1.476;2023-04-07T11:51:05;100134.00;;;17.05;39.59
15646;BME280;7922;43.622;1.476;2023-04-07T11:53:33;100143.97;;;17.03;39.29
15646;BME280;7922;43.622;1.476;2023-04-07T11:56:06;100109.91;;;17.05;40.64
15646;BME280;7922;43.622;1.476;2023-04-07T11:58:32;100135.47;;;17.37;39.01
15646;BME280;7922;43.622;1.476;2023-04-07T12:00:59;100149.59;;;17.26;39.92
15646;BME280;7922;43.622;1.476;2023-04-07T12:03:25;100124.31;;;17.30;37.82
15646;BME280;7922;43.622;1.476;2023-04-07T12:05:50;100004.81;;;16.64;36.87
15646;BME280;7922;43.622;1.476;2023-04-07T12:08:15;100102.00;;;17.17;37.12
15646;BME280;7922;43.622;1.476;2023-04-07T12:10:41;100041.28;;;16.65;38.09
15646;BME280;7922;43.622;1.476;2023-04-07T12:13:07;100054.22;;;16.98;37.50
15646;BME280;7922;43.622;1.476;2023-04-07T12:15:33;100089.06;;;17.23;37.60
15646;BME280;7922;43.622;1.476;2023-04-07T12:17:58;100139.56;;;17.55;36.88
15646;BME280;7922;43.622;1.476;2023-04-07T12:20:24;100094.88;;;17.43;36.71
15646;BME280;7922;43.622;1.476;2023-04-07T12:22:49;100141.72;;;17.63;37.32
15646;BME280;7922;43.622;1.476;2023-04-07T12:25:14;100085.03;;;17.56;37.56
15646;BME280;7922;43.622;1.476;2023-04-07T12:27:40;100143.78;;;17.85;37.59
15646;BME280;7922;43.622;1.476;2023-04-07T12:30:05;100116.94;;;17.72;37.71
15646;BME280;7922;43.622;1.476;2023-04-07T12:32:31;100071.97;;;17.51;38.21
15646;BME280;7922;43.622;1.476;2023-04-07T12:34:56;99943.44;;;16.88;38.43
15646;BME280;7922;43.622;1.476;2023-04-07T12:37:21;100122.09;;;18.13;38.20
15646;BME280;7922;43.622;1.476;2023-04-07T12:39:47;100058.75;;;17.74;38.38
15646;BME280;7922;43.622;1.476;2023-04-07T12:42:12;100061.22;;;17.64;38.23
15646;BME280;7922;43.622;1.476;2023-04-07T12:44:37;100081.59;;;17.92;38.75
15646;BME280;7922;43.622;1.476;2023-04-07T12:47:03;100050.19;;;17.94;39.01
15646;BME280;7922;43.622;1.476;2023-04-07T12:49:28;100060.50;;;17.88;38.63
15646;BME280;7922;43.622;1.476;2023-04-07T12:51:53;100095.16;;;18.15;37.35
15646;BME280;7922;43.622;1.476;2023-04-07T12:54:19;100059.84;;;17.84;38.46
15646;BME280;7922;43.622;1.476;2023-04-07T12:56:44;99925.13;;;17.20;38.63
15646;BME280;7922;43.622;1.476;2023-04-07T12:59:09;100075.84;;;18.22;38.44
15646;BME280;7922;43.622;1.476;2023-04-07T13:01:35;99936.28;;;17.63;38.52
15646;BME280;7922;43.622;1.476;2023-04-07T13:04:00;100075.06;;;18.33;38.20
15646;BME280;7922;43.622;1.476;2023-04-07T13:06:25;100026.22;;;18.17;38.84
15646;BME280;7922;43.622;1.476;2023-04-07T13:08:50;100070.91;;;18.29;38.17
15646;BME280;7922;43.622;1.476;2023-04-07T13:11:16;100051.16;;;18.54;37.94
15646;BME280;7922;43.622;1.476;2023-04-07T13:13:41;100088.22;;;18.49;38.47
15646;BME280;7922;43.622;1.476;2023-04-07T13:16:06;100039.53;;;18.42;37.98